Time;durP1;ratioP1;P1;durP2;ratioP2;P2;SDS_P1;SDS_P2;PMS_P1;PMS_P2;Temp;Humidity;BMP_temperature;BMP_pressure;BME280_temperature;BME280_humidity;BME280_pressure;Samples;Min_cycle;Max_cycle;Signal;HPM_P1;HPM_P2
2021/12/22 00:00:03;;;;;;;0.43;0.43;;;;;;;-0.30;71.31;102038.34;5116541;29;20023;-78
2021/12/22 00:02:35;;;;;;;1.13;1.13;;;;;;;-0.33;70.97;102039.97;5115476;28;20147;-77
2021/12/22 00:05:05;;;;;;;0.98;0.98;;;;;;;-0.37;71.23;102040.66;5117906;29;20042;-78
2021/12/22 00:07:36;;;;;;;1.33;0.93;;;;;;;-0.41;71.40;102041.38;5100188;28;20023;-77
2021/12/22 00:10:07;;;;;;;1.70;1.60;;;;;;;-0.47;72.06;102038.56;5101133;29;20041;-81
2021/12/22 00:12:38;;;;;;;0.60;0.60;;;;;;;-0.49;72.41;102043.63;5129674;28;20040;-79
2021/12/22 00:15:09;;;;;;;1.92;1.83;;;;;;;-0.33;71.41;102049.41;5117311;29;20549;-78
2021/12/22 00:17:40;;;;;;;0.60;0.60;;;;;;;-0.33;71.14;102044.25;5116843;28;20023;-78
2021/12/22 00:20:12;;;;;;;2.45;2.25;;;;;;;-0.40;71.92;102037.97;5120571;28;20042;-78
2021/12/22 00:22:43;;;;;;;1.23;1.23;;;;;;;-0.35;71.33;102040.72;5119994;28;20079;-78
2021/12/22 00:25:14;;;;;;;0.95;0.95;;;;;;;-0.35;72.02;102041.59;5121937;28;20034;-81
2021/12/22 00:27:45;;;;;;;0.50;0.50;;;;;;;-0.32;71.97;102035.69;5122869;28;20514;-80
2021/12/22 00:30:16;;;;;;;0.60;0.60;;;;;;;-0.29;71.90;102037.53;5105712;29;20062;-78
2021/12/22 00:32:51;;;;;;;0.60;0.60;;;;;;;-0.26;72.18;102035.03;5124822;28;20042;-77
2021/12/22 00:35:26;;;;;;;1.08;1.05;;;;;;;-0.27;71.44;102041.00;5110942;29;20032;-80
2021/12/22 00:37:57;;;;;;;2.13;2.03;;;;;;;-0.23;71.52;102036.03;5127668;28;20031;-78
2021/12/22 00:40:28;;;;;;;1.52;1.48;;;;;;;-0.24;71.62;102031.69;5120947;29;20035;-79
2021/12/22 00:42:58;;;;;;;1.00;1.00;;;;;;;-0.19;71.68;102030.19;5099187;29;20035;-77
2021/12/22 00:45:32;;;;;;;0.43;0.43;;;;;;;-0.19;72.21;102024.13;5134232;28;20039;-79
2021/12/22 00:48:04;;;;;;;1.48;1.42;;;;;;;-0.38;72.60;102031.19;5119377;28;20045;-79
2021/12/22 00:50:36;;;;;;;1.02;1.02;;;;;;;-0.40;72.65;102021.59;5108573;29;20038;-77
2021/12/22 00:53:07;;;;;;;3.38;3.17;;;;;;;-0.43;72.48;102019.78;5103070;28;20082;-77
2021/12/22 00:55:38;;;;;;;1.88;1.77;;;;;;;-0.29;72.09;102012.59;5106660;29;20449;-78
2021/12/22 00:58:08;;;;;;;1.20;1.20;;;;;;;-0.25;72.22;102013.59;5119002;28;20047;-81
2021/12/22 01:00:39;;;;;;;1.05;1.05;;;;;;;-0.27;71.76;102008.38;5104526;29;20514;-78
2021/12/22 01:03:11;;;;;;;0.60;0.60;;;;;;;-0.21;71.58;102005.16;5104368;28;20082;-77
2021/12/22 01:05:42;;;;;;;0.68;0.68;;;;;;;-0.26;71.90;102011.81;5109798;29;20039;-79
2021/12/22 01:08:13;;;;;;;7.05;2.28;;;;;;;-0.23;71.71;102015.41;5129368;28;20054;-78
2021/12/22 01:10:43;;;;;;;0.93;0.93;;;;;;;-0.25;72.16;102016.16;5106760;29;20034;-78
2021/12/22 01:13:14;;;;;;;1.30;1.27;;;;;;;-0.21;72.15;102013.75;5113424;28;20095;-78
2021/12/22 01:15:45;;;;;;;1.70;1.65;;;;;;;-0.27;72.42;102017.81;5117627;29;20441;-77
2021/12/22 01:18:26;;;;;;;1.50;1.48;;;;;;;-0.27;72.67;102022.97;5114623;28;20043;-81
2021/12/22 01:24:22;;;;;;;0.73;0.73;;;;;;;-0.33;72.80;102021.91;5104675;28;20043;-78
2021/12/22 01:26:57;;;;;;;12.75;2.45;;;;;;;-0.26;72.31;102029.88;5107002;28;20126;-78
2021/12/22 01:29:28;;;;;;;1.75;1.65;;;;;;;-0.21;72.46;102033.53;5123643;28;20067;-77
2021/12/22 01:31:58;;;;;;;0.70;0.70;;;;;;;-0.27;72.67;102033.28;5123307;28;20051;-78
2021/12/22 01:34:30;;;;;;;0.57;0.57;;;;;;;-0.26;72.85;102038.53;5119592;28;20139;-77
2021/12/22 01:37:01;;;;;;;1.38;1.38;;;;;;;-0.15;71.88;102038.94;5106652;29;20063;-78
2021/12/22 01:39:31;;;;;;;1.27;1.20;;;;;;;-0.12;72.17;102043.31;5103538;28;20070;-78
2021/12/22 01:42:02;;;;;;;0.73;0.73;;;;;;;-0.10;71.86;102041.69;5135841;28;20042;-78
2021/12/22 01:50:39;;;;;;;1.10;1.07;;;;;;;-0.05;71.84;102046.19;5169903;28;20026;-84
2021/12/22 01:53:19;;;;;;;0.60;0.60;;;;;;;-0.03;71.83;102039.38;5159707;28;20660;-84
2021/12/22 01:58:57;;;;;;;0.77;0.77;;;;;;;-0.03;72.06;102035.94;5159947;28;20449;-85
2021/12/22 02:01:29;;;;;;;0.98;0.98;;;;;;;-0.10;71.38;102034.81;5130049;28;20034;-85
2021/12/22 02:04:02;;;;;;;0.50;0.50;;;;;;;-0.12;71.52;102043.31;5128394;28;20046;-84
2021/12/22 02:06:33;;;;;;;0.55;0.55;;;;;;;-0.14;71.95;102045.84;5145029;28;20504;-85
2021/12/22 02:09:04;;;;;;;1.23;1.20;;;;;;;-0.10;71.89;102047.72;5147561;28;20065;-85
2021/12/22 02:11:35;;;;;;;1.15;1.15;;;;;;;-0.14;71.66;102038.09;5160597;28;20337;-84
2021/12/22 02:14:07;;;;;;;2.95;2.75;;;;;;;-0.24;71.65;102033.41;5147136;28;20034;-85
2021/12/22 02:16:39;;;;;;;0.65;0.65;;;;;;;-0.17;71.72;102040.56;5147575;28;20034;-84
2021/12/22 02:19:11;;;;;;;0.82;0.82;;;;;;;-0.19;71.90;102029.28;5133498;28;20053;-85
2021/12/22 02:21:48;;;;;;;0.93;0.93;;;;;;;-0.13;72.02;102021.81;5166567;28;20034;-85
2021/12/22 02:24:18;;;;;;;0.93;0.93;;;;;;;-0.18;71.96;102020.72;5143494;28;20038;-84
2021/12/22 02:26:57;;;;;;;0.75;0.75;;;;;;;-0.29;71.95;102027.19;5140799;28;20120;-85
2021/12/22 02:29:35;;;;;;;3.25;2.95;;;;;;;-0.25;71.74;102027.38;5157911;28;20030;-84
2021/12/22 02:32:21;;;;;;;5.40;2.88;;;;;;;-0.29;72.44;102029.78;5130855;28;20066;-85
2021/12/22 02:34:52;;;;;;;0.93;0.93;;;;;;;-0.42;72.84;102024.13;5142462;28;20045;-85
2021/12/22 02:37:26;;;;;;;1.05;1.05;;;;;;;-0.47;72.05;102020.50;5143206;28;20045;-85
2021/12/22 02:40:10;;;;;;;0.60;0.60;;;;;;;-0.41;72.47;102013.00;5159088;28;20041;-86
2021/12/22 02:42:42;;;;;;;1.63;1.63;;;;;;;-0.29;71.80;102019.47;5126627;28;20110;-84
2021/12/22 02:45:16;;;;;;;2.83;2.35;;;;;;;-0.25;72.15;102021.31;5131372;28;20054;-84
2021/12/22 02:47:50;;;;;;;0.60;0.60;;;;;;;-0.29;72.15;102012.59;5139914;28;20421;-84
2021/12/22 02:50:21;;;;;;;0.82;0.82;;;;;;;-0.31;71.79;102016.81;5157487;28;20026;-85
2021/12/22 02:53:11;;;;;;;0.80;0.80;;;;;;;-0.34;71.67;102007.25;5139779;28;20995;-84
2021/12/22 02:55:50;;;;;;;0.43;0.43;;;;;;;-0.34;71.63;102009.84;5125758;28;20046;-84
2021/12/22 02:58:34;;;;;;;1.90;1.80;;;;;;;-0.24;71.72;102015.34;5137229;28;20038;-85
2021/12/22 03:01:22;;;;;;;;;;;;;;;;;;;;;
2021/12/22 03:06:36;;;;;;;0.65;0.65;;;;;;;-0.36;72.26;102014.03;5162055;28;20052;-83
2021/12/22 03:09:23;;;;;;;0.85;0.85;;;;;;;-0.30;72.34;102003.09;5166025;28;20242;-82
2021/12/22 03:11:57;;;;;;;0.80;0.80;;;;;;;-0.36;72.03;102006.31;5168696;28;20125;-84
2021/12/22 03:14:28;;;;;;;0.50;0.50;;;;;;;-0.31;72.10;102011.66;5131237;28;20159;-84
2021/12/22 03:16:59;;;;;;;0.65;0.65;;;;;;;-0.35;71.65;102008.06;5143589;28;20099;-84
2021/12/22 03:19:34;;;;;;;1.00;1.00;;;;;;;-0.37;72.57;102004.53;5159318;28;20038;-84
2021/12/22 03:22:09;;;;;;;0.30;0.30;;;;;;;-0.58;72.19;101998.56;5158017;28;20041;-84
2021/12/22 03:24:40;;;;;;;0.50;0.50;;;;;;;-0.66;73.02;102006.00;5124452;28;20108;-84
2021/12/22 03:27:11;;;;;;;0.50;0.50;;;;;;;-0.60;72.69;102002.78;5141545;28;20409;-84
2021/12/22 03:29:42;;;;;;;1.25;1.25;;;;;;;-0.48;72.31;102011.00;5145583;28;20057;-83
2021/12/22 03:32:15;;;;;;;0.40;0.40;;;;;;;-0.63;72.04;102008.69;5172946;28;20166;-84
2021/12/22 03:34:46;;;;;;;0.55;0.55;;;;;;;-0.49;72.39;102004.09;5140202;28;20575;-84
2021/12/22 03:37:16;;;;;;;0.85;0.85;;;;;;;-0.61;72.21;102001.00;5158588;28;20156;-84
2021/12/22 03:39:47;;;;;;;1.90;1.77;;;;;;;-0.59;72.26;101992.53;5140819;28;20084;-84
2021/12/22 03:42:17;;;;;;;1.75;1.65;;;;;;;-0.70;72.51;101996.38;5146186;28;20046;-83
2021/12/22 03:44:48;;;;;;;0.60;0.60;;;;;;;-0.72;73.08;101996.34;5160359;23;20065;-85
2021/12/22 03:47:20;;;;;;;0.80;0.80;;;;;;;-0.67;72.20;101992.22;5162751;28;20048;-84
2021/12/22 03:49:50;;;;;;;0.70;0.70;;;;;;;-0.53;72.03;101989.28;5167262;28;20033;-84
2021/12/22 03:52:21;;;;;;;1.02;1.02;;;;;;;-0.60;72.24;101995.03;5166011;28;20434;-84
2021/12/22 03:54:57;;;;;;;0.85;0.85;;;;;;;-0.70;72.93;101992.09;5176395;28;20452;-84
2021/12/22 03:57:29;;;;;;;0.45;0.45;;;;;;;-0.64;72.58;101994.94;5148652;28;20490;-84
2021/12/22 04:00:00;;;;;;;0.40;0.40;;;;;;;-0.57;72.24;102005.47;5182025;28;20033;-84
2021/12/22 04:02:31;;;;;;;0.50;0.50;;;;;;;-0.55;72.14;102001.28;5164148;28;20018;-84
2021/12/22 04:05:03;;;;;;;0.55;0.55;;;;;;;-0.48;71.57;102003.28;5164970;28;20674;-84
2021/12/22 04:07:34;;;;;;;0.50;0.50;;;;;;;-0.47;72.23;102002.47;5148344;28;20139;-84
2021/12/22 04:10:19;;;;;;;2.30;2.15;;;;;;;-0.53;71.95;102003.09;5181564;28;20233;-85
2021/12/22 04:12:54;;;;;;;0.68;0.68;;;;;;;-0.53;72.49;102012.50;5165837;28;20149;-85
2021/12/22 04:15:27;;;;;;;0.73;0.73;;;;;;;-0.47;72.36;102020.50;5154532;28;20054;-85
2021/12/22 04:17:57;;;;;;;0.80;0.80;;;;;;;-0.67;72.20;102018.00;5169305;28;20029;-85
2021/12/22 04:20:29;;;;;;;0.70;0.70;;;;;;;-0.53;72.25;102020.25;5169175;28;20022;-85
2021/12/22 04:23:00;;;;;;;0.50;0.50;;;;;;;-0.53;71.97;102027.97;5164634;28;20132;-85
2021/12/22 04:25:32;;;;;;;0.73;0.73;;;;;;;-0.77;72.08;102015.88;5164174;28;20026;-85
2021/12/22 04:28:08;;;;;;;2.17;1.10;;;;;;;-0.65;72.49;102018.94;5195639;28;20077;-85
2021/12/22 04:30:48;;;;;;;0.50;0.50;;;;;;;-0.66;71.96;102027.50;5148761;28;20055;-85
2021/12/22 04:33:19;;;;;;;1.85;1.75;;;;;;;-0.59;71.60;102025.16;5145278;28;20077;-84
2021/12/22 04:35:52;;;;;;;0.85;0.80;;;;;;;-0.56;71.70;102026.16;5181003;28;20448;-85
2021/12/22 04:38:23;;;;;;;0.50;0.50;;;;;;;-0.53;71.92;102030.56;5159722;28;20042;-85
2021/12/22 04:40:53;;;;;;;0.60;0.60;;;;;;;-0.55;71.96;102030.50;5180461;28;20042;-85
2021/12/22 04:43:24;;;;;;;1.27;1.20;;;;;;;-0.63;71.92;102034.47;5193478;28;20033;-84
2021/12/22 04:45:54;;;;;;;0.70;0.70;;;;;;;-0.96;72.92;102035.75;5162185;28;20508;-85
2021/12/22 04:48:25;;;;;;;1.83;1.73;;;;;;;-0.76;72.63;102033.09;5163696;28;20408;-85
2021/12/22 04:50:55;;;;;;;0.40;0.40;;;;;;;-0.65;72.53;102031.84;5180950;28;20033;-85
2021/12/22 04:53:29;;;;;;;0.50;0.50;;;;;;;-0.61;71.58;102021.63;5149916;28;20037;-84
2021/12/22 04:55:59;;;;;;;;;;;;;;;-0.61;71.87;102031.94;5182465;28;20105;-83
2021/12/22 04:58:30;;;;;;;3.03;2.28;;;;;;;-0.64;71.78;102024.97;5164897;28;20013;-83
2021/12/22 05:01:00;;;;;;;1.80;1.70;;;;;;;-0.62;71.73;102015.63;5167621;28;20033;-84
2021/12/22 05:03:31;;;;;;;0.63;0.63;;;;;;;-0.62;71.46;102014.75;5176540;28;20041;-84
2021/12/22 05:06:02;;;;;;;2.05;1.95;;;;;;;-0.70;71.73;102020.44;5195750;28;20026;-84
2021/12/22 05:08:32;;;;;;;3.47;1.77;;;;;;;-0.73;72.09;102011.72;5196322;28;20100;-84
2021/12/22 05:11:03;;;;;;;1.05;1.05;;;;;;;-0.72;71.77;102009.22;5194178;28;20018;-84
2021/12/22 05:13:35;;;;;;;1.08;1.08;;;;;;;-0.68;71.40;102005.94;5156703;28;20030;-85
2021/12/22 05:16:06;;;;;;;0.50;0.50;;;;;;;-0.70;71.96;102007.56;5153331;28;20048;-84
2021/12/22 05:21:26;;;;;;;1.48;1.48;;;;;;;-0.66;71.66;102000.84;5191811;28;20037;-84
2021/12/22 05:23:57;;;;;;;0.60;0.60;;;;;;;-0.73;71.97;102001.41;5174820;28;20121;-84
2021/12/22 05:26:28;;;;;;;0.60;0.60;;;;;;;-0.70;72.39;102007.56;5164046;28;20054;-85
2021/12/22 05:28:59;;;;;;;1.25;1.25;;;;;;;-0.66;71.60;102004.31;5189157;28;20537;-84
2021/12/22 05:31:29;;;;;;;0.63;0.63;;;;;;;-0.66;72.50;102009.47;5161275;28;20120;-85
2021/12/22 05:34:00;;;;;;;0.60;0.60;;;;;;;-0.64;71.88;102001.78;5152703;28;20065;-85
2021/12/22 05:36:31;;;;;;;0.73;0.73;;;;;;;-0.76;71.81;102007.31;5172019;28;20026;-85
2021/12/22 05:39:02;;;;;;;0.82;0.82;;;;;;;-0.67;71.97;102002.53;5181364;28;20311;-85
2021/12/22 05:41:32;;;;;;;0.85;0.85;;;;;;;-0.68;72.25;101997.34;5164593;28;20137;-85
2021/12/22 05:44:03;;;;;;;1.50;1.40;;;;;;;-0.69;71.98;101995.56;5161298;28;20072;-84
2021/12/22 05:46:34;;;;;;;1.00;1.00;;;;;;;-0.72;72.39;101991.19;5196930;28;20081;-86
2021/12/22 05:49:04;;;;;;;1.15;1.15;;;;;;;-0.72;71.80;101996.34;5179153;28;20026;-84
2021/12/22 05:51:35;;;;;;;0.65;0.65;;;;;;;-0.86;71.88;101989.72;5166661;28;20053;-85
2021/12/22 05:54:05;;;;;;;0.30;0.30;;;;;;;-0.93;72.48;101987.72;5161864;28;20037;-85
2021/12/22 05:56:36;;;;;;;0.73;0.73;;;;;;;-0.86;73.12;101992.28;5170942;28;20033;-86
2021/12/22 05:59:07;;;;;;;0.50;0.50;;;;;;;-0.82;72.60;101986.47;5185072;28;20118;-85
2021/12/22 06:01:37;;;;;;;0.50;0.50;;;;;;;-0.85;72.54;101991.47;5148204;28;20072;-86
2021/12/22 06:04:08;;;;;;;0.50;0.50;;;;;;;-0.75;72.52;101993.63;5145552;28;20041;-86
2021/12/22 06:06:38;;;;;;;0.77;0.77;;;;;;;-0.80;72.78;101995.16;5167102;28;20056;-86
2021/12/22 06:09:09;;;;;;;0.63;0.63;;;;;;;-0.85;72.35;102001.78;5178974;28;20109;-86
2021/12/22 06:11:39;;;;;;;0.70;0.70;;;;;;;-0.82;72.66;102000.22;5162338;28;20025;-85
2021/12/22 06:14:12;;;;;;;0.82;0.82;;;;;;;-0.87;72.63;101993.16;5175586;28;20403;-87
2021/12/22 06:16:43;;;;;;;1.80;1.70;;;;;;;-0.81;72.21;101980.50;5162267;28;20037;-84
2021/12/22 06:19:15;;;;;;;1.15;1.15;;;;;;;-0.79;72.31;101986.59;5175200;28;20184;-86
2021/12/22 06:21:46;;;;;;;0.35;0.35;;;;;;;-0.73;72.52;101981.69;5171426;28;20097;-85
2021/12/22 06:24:17;;;;;;;0.95;0.95;;;;;;;-0.77;72.13;101977.22;5145201;28;20033;-86
2021/12/22 06:26:47;;;;;;;0.80;0.80;;;;;;;-0.74;72.14;101984.22;5148653;28;20033;-85
2021/12/22 06:29:18;;;;;;;1.00;1.00;;;;;;;-0.78;71.98;101977.16;5161125;28;20041;-85
2021/12/22 06:31:49;;;;;;;1.73;1.33;;;;;;;-0.72;72.28;101973.13;5177838;28;20021;-86
2021/12/22 06:34:19;;;;;;;2.92;2.67;;;;;;;-0.61;71.87;101985.53;5180074;28;20046;-84
2021/12/22 06:36:50;;;;;;;0.50;0.50;;;;;;;-0.68;72.42;101985.31;5158789;28;20084;-85
2021/12/22 06:39:21;;;;;;;1.00;1.00;;;;;;;-0.67;72.46;101975.91;5167918;28;20045;-85
2021/12/22 06:41:51;;;;;;;4.55;3.28;;;;;;;-0.66;72.35;101978.53;5157827;28;20088;-84
2021/12/22 06:44:25;;;;;;;0.55;0.55;;;;;;;-0.61;71.99;101976.13;5179701;28;20068;-85
2021/12/22 06:46:56;;;;;;;0.95;0.95;;;;;;;-0.64;72.23;101974.31;5186741;28;20026;-85
2021/12/22 06:49:26;;;;;;;0.50;0.50;;;;;;;-0.69;72.62;101975.81;5170869;28;20044;-85
2021/12/22 06:51:57;;;;;;;1.02;1.02;;;;;;;-0.71;72.51;101979.16;5145605;28;20025;-86
2021/12/22 06:54:27;;;;;;;0.85;0.85;;;;;;;-0.59;72.06;101978.75;5145195;28;20050;-86
2021/12/22 06:56:58;;;;;;;1.10;1.10;;;;;;;-0.59;72.26;101974.50;5162927;28;20034;-84
2021/12/22 06:59:32;;;;;;;0.50;0.50;;;;;;;-0.59;72.72;101977.06;5155045;28;20050;-85
2021/12/22 07:02:03;;;;;;;0.50;0.50;;;;;;;-0.61;72.16;101981.28;5200171;28;20021;-84
2021/12/22 07:04:34;;;;;;;0.50;0.50;;;;;;;-0.56;71.74;101989.19;5163406;28;20038;-85
2021/12/22 07:07:04;;;;;;;0.40;0.40;;;;;;;-0.61;72.28;101981.28;5179636;28;20041;-86
2021/12/22 07:09:35;;;;;;;0.70;0.70;;;;;;;-0.62;72.65;101983.81;5167526;28;20042;-85
2021/12/22 07:12:09;;;;;;;0.47;0.47;;;;;;;-0.57;72.07;101977.13;5147728;28;20026;-88
2021/12/22 07:14:42;;;;;;;;;;;;;;;-0.61;72.38;101970.06;5191378;28;20073;-84
2021/12/22 07:17:13;;;;;;;0.50;0.50;;;;;;;-0.81;72.82;101972.75;5164776;28;19960;-85
2021/12/22 07:19:44;;;;;;;1.40;1.33;;;;;;;-0.70;72.77;101976.63;5157329;28;20349;-85
2021/12/22 07:22:15;;;;;;;0.80;0.80;;;;;;;-0.66;72.45;101975.94;5162423;28;20147;-85
2021/12/22 07:24:48;;;;;;;;;;;;;;;-0.65;72.25;101985.44;5178777;28;20038;-85
2021/12/22 07:27:19;;;;;;;1.30;1.27;;;;;;;-0.67;72.74;101981.06;5147760;28;20236;-84
2021/12/22 07:29:49;;;;;;;0.63;0.63;;;;;;;-0.78;72.38;101972.88;5161373;28;20274;-83
2021/12/22 07:32:20;;;;;;;0.82;0.82;;;;;;;-0.69;72.35;101980.09;5160481;28;20497;-86
2021/12/22 07:34:52;;;;;;;0.85;0.85;;;;;;;-0.67;72.53;101970.75;5191833;28;20418;-86
2021/12/22 07:37:30;;;;;;;1.08;1.00;;;;;;;-0.68;73.25;101971.56;5150843;28;20065;-89
2021/12/22 07:40:01;;;;;;;2.00;1.85;;;;;;;-0.64;72.78;101973.41;5158121;28;20480;-84
2021/12/22 07:42:32;;;;;;;2.42;2.25;;;;;;;-0.63;72.54;101967.44;5168188;28;20101;-86
2021/12/22 07:45:04;;;;;;;0.70;0.70;;;;;;;-0.59;72.85;101971.03;5171866;28;20054;-85
2021/12/22 07:47:35;;;;;;;0.43;0.43;;;;;;;-0.55;72.57;101978.94;5160766;28;20026;-85
2021/12/22 07:50:07;;;;;;;0.65;0.65;;;;;;;-0.56;72.03;101977.19;5159467;28;20034;-86
2021/12/22 07:52:37;;;;;;;9.40;8.80;;;;;;;-0.59;72.10;101974.50;5161424;28;20037;-85
2021/12/22 07:55:08;;;;;;;0.98;0.98;;;;;;;-0.60;72.16;101989.88;5178043;28;20030;-85
2021/12/22 07:57:41;;;;;;;0.43;0.43;;;;;;;-0.54;72.25;101972.09;5162088;28;20473;-85
2021/12/22 08:00:18;;;;;;;0.50;0.50;;;;;;;-0.56;72.19;101984.03;5177457;28;20037;-82
2021/12/22 08:02:55;;;;;;;0.77;0.77;;;;;;;-0.55;72.34;101983.22;5166491;28;20121;-82
2021/12/22 08:05:26;;;;;;;0.60;0.60;;;;;;;-0.54;72.02;101987.56;5176102;28;20418;-82
2021/12/22 08:07:58;;;;;;;1.30;1.30;;;;;;;-0.53;72.28;101995.34;5200103;28;20056;-83
2021/12/22 08:10:28;;;;;;;0.60;0.60;;;;;;;-0.48;72.34;101992.97;5175014;28;20029;-80
2021/12/22 08:12:59;;;;;;;0.73;0.73;;;;;;;-0.46;72.10;101986.16;5185488;28;20260;-84
2021/12/22 08:15:30;;;;;;;0.60;0.60;;;;;;;-0.58;72.16;101977.94;5176713;28;20088;-85
2021/12/22 08:18:00;;;;;;;4.28;1.55;;;;;;;-0.47;72.50;101974.09;5159972;28;20505;-83
2021/12/22 08:20:31;;;;;;;0.50;0.50;;;;;;;-0.51;72.21;101977.34;5164172;28;20500;-82
2021/12/22 08:23:02;;;;;;;0.70;0.70;;;;;;;-0.47;72.03;101976.66;5172741;28;20100;-82
2021/12/22 08:25:32;;;;;;;0.60;0.60;;;;;;;-0.39;72.07;101974.38;5156970;28;20030;-83
2021/12/22 08:28:03;;;;;;;0.52;0.52;;;;;;;-0.45;72.58;101972.44;5161841;28;20040;-84
2021/12/22 08:30:33;;;;;;;0.70;0.70;;;;;;;-0.42;72.40;101972.56;5177855;28;20026;-82
2021/12/22 08:33:15;;;;;;;1.30;1.30;;;;;;;-0.38;72.27;101969.28;5158748;28;20314;-84
2021/12/22 08:38:50;;;;;;;1.58;1.55;;;;;;;-0.45;72.83;101982.75;5158695;28;20664;-84
2021/12/22 08:41:32;;;;;;;1.00;1.00;;;;;;;-0.43;72.43;101972.50;5162254;28;20062;-83
2021/12/22 08:44:07;;;;;;;3.28;2.78;;;;;;;-0.35;72.66;101974.53;5163950;28;20038;-84
2021/12/22 08:46:42;;;;;;;0.52;0.52;;;;;;;-0.52;73.11;101975.59;5149496;28;20104;-84
2021/12/22 08:49:12;;;;;;;0.90;0.90;;;;;;;-0.44;72.25;101968.16;5166134;28;20476;-84
2021/12/22 08:51:43;;;;;;;1.38;1.38;;;;;;;-0.38;72.50;101964.13;5161804;28;20022;-84
2021/12/22 08:54:14;;;;;;;1.35;1.35;;;;;;;-0.44;73.11;101969.03;5179576;28;20107;-85
2021/12/22 08:56:46;;;;;;;0.70;0.70;;;;;;;-0.53;73.10;101963.50;5162870;28;20068;-85
2021/12/22 08:59:17;;;;;;;13.35;12.40;;;;;;;-0.45;73.44;101966.41;5160535;28;20056;-84
2021/12/22 09:01:48;;;;;;;3.55;3.40;;;;;;;-0.39;72.95;101962.38;5160361;28;20112;-84
2021/12/22 09:04:19;;;;;;;0.90;0.88;;;;;;;-0.38;73.09;101966.72;5160715;28;20046;-84
2021/12/22 09:06:51;;;;;;;1.02;1.02;;;;;;;-0.41;73.28;101963.13;5163454;28;20708;-84
2021/12/22 09:09:22;;;;;;;0.65;0.65;;;;;;;-0.37;72.84;101958.13;5181246;28;20041;-84
2021/12/22 09:11:53;;;;;;;0.60;0.60;;;;;;;-0.35;72.67;101960.78;5160049;28;20065;-84
2021/12/22 09:14:24;;;;;;;1.30;1.30;;;;;;;-0.30;72.77;101961.81;5161923;28;20053;-84
2021/12/22 09:16:55;;;;;;;0.82;0.82;;;;;;;-0.45;73.09;101966.41;5164256;28;20029;-84
2021/12/22 09:19:26;;;;;;;0.75;0.75;;;;;;;-0.35;72.89;101968.53;5174082;28;20053;-84
2021/12/22 09:21:56;;;;;;;1.60;1.55;;;;;;;-0.37;73.30;101972.72;5184848;28;20025;-85
2021/12/22 09:24:27;;;;;;;0.80;0.80;;;;;;;-0.33;72.93;101970.31;5152556;28;20145;-85
2021/12/22 09:26:58;;;;;;;1.13;1.10;;;;;;;-0.30;73.16;101969.56;5153775;28;20080;-84
2021/12/22 09:29:29;;;;;;;1.20;1.20;;;;;;;-0.34;73.19;101971.16;5158048;28;20038;-84
2021/12/22 09:31:59;;;;;;;2.63;1.90;;;;;;;-0.22;73.36;101964.72;5148307;28;20533;-84
2021/12/22 09:34:33;;;;;;;1.45;1.40;;;;;;;-0.26;73.15;101967.97;5171502;28;20117;-84
2021/12/22 09:37:18;;;;;;;1.02;1.02;;;;;;;-0.16;72.56;101970.94;5158517;28;20037;-85
2021/12/22 09:39:49;;;;;;;1.58;1.52;;;;;;;-0.14;72.86;101962.38;5151585;28;20038;-84
2021/12/22 09:42:55;;;;;;;0.77;0.77;;;;;;;-0.12;73.00;101968.50;5150848;28;20026;-84
2021/12/22 09:45:26;;;;;;;0.40;0.40;;;;;;;-0.35;74.10;101964.22;5172041;28;20082;-85
2021/12/22 09:50:52;;;;;;;;;;;;;;;;;;;;;
2021/12/22 09:53:21;;;;;;;1.88;1.75;;;;;;;-0.17;73.41;101963.16;5180626;28;20049;-84
2021/12/22 09:56:02;;;;;;;3.83;2.17;;;;;;;-0.13;73.13;101966.72;5177924;28;20080;-85
2021/12/22 09:58:36;;;;;;;0.65;0.65;;;;;;;-0.03;73.50;101967.13;5169281;28;20084;-84
2021/12/22 10:01:49;;;;;;;0.95;0.95;;;;;;;0.09;73.02;101960.66;5183315;28;20113;-84
2021/12/22 10:04:31;;;;;;;1.50;1.48;;;;;;;-0.04;73.14;101960.19;5169458;28;20099;-85
2021/12/22 10:07:07;;;;;;;0.98;0.98;;;;;;;0.07;72.98;101951.97;5182615;28;20029;-85
2021/12/22 10:09:46;;;;;;;1.02;1.02;;;;;;;0.00;73.20;101950.91;5168941;28;20088;-85
2021/12/22 10:12:23;;;;;;;0.60;0.60;;;;;;;0.04;72.92;101947.59;5178735;28;20029;-85
2021/12/22 10:15:16;;;;;;;0.70;0.70;;;;;;;0.06;72.97;101940.78;5143733;28;20053;-85
2021/12/22 10:17:53;;;;;;;0.80;0.80;;;;;;;-0.01;73.63;101944.84;5173152;28;20049;-85
2021/12/22 10:20:35;;;;;;;1.15;1.15;;;;;;;0.07;72.90;101931.31;5157614;28;20128;-85
2021/12/22 10:23:23;;;;;;;1.95;1.85;;;;;;;0.02;73.24;101932.88;5195462;28;20127;-84
2021/12/22 10:26:04;;;;;;;0.80;0.80;;;;;;;0.06;73.10;101934.72;5163013;28;20030;-85
2021/12/22 10:28:53;;;;;;;1.17;1.17;;;;;;;0.17;73.20;101923.09;5179513;28;20047;-85
2021/12/22 10:31:40;;;;;;;0.70;0.70;;;;;;;0.23;72.90;101928.47;5150666;28;20119;-85
2021/12/22 10:34:14;;;;;;;0.95;0.95;;;;;;;0.24;73.11;101940.53;5170673;28;20049;-85
2021/12/22 10:36:44;;;;;;;0.82;0.82;;;;;;;0.19;73.44;101936.03;5140354;28;20044;-86
2021/12/22 10:39:41;;;;;;;1.85;1.75;;;;;;;0.21;73.10;101924.94;5174711;28;20029;-85
2021/12/22 10:42:12;;;;;;;2.15;2.05;;;;;;;0.23;73.19;101925.88;5159673;28;20040;-84
2021/12/22 10:44:45;;;;;;;0.63;0.63;;;;;;;0.35;73.54;101916.81;5177678;28;20042;-85
2021/12/22 10:47:34;;;;;;;0.60;0.60;;;;;;;0.31;73.25;101931.31;5161469;28;20393;-85
2021/12/22 10:50:07;;;;;;;13.60;2.65;;;;;;;0.41;73.32;101917.91;5160220;28;20054;-87
2021/12/22 10:52:37;;;;;;;1.58;1.58;;;;;;;0.35;73.35;101920.25;5197157;28;20417;-84
2021/12/22 10:55:11;;;;;;;1.30;1.25;;;;;;;0.34;73.22;101915.06;5196422;28;20113;-84
2021/12/22 10:57:45;;;;;;;0.57;0.57;;;;;;;0.45;73.52;101918.91;5167963;28;20278;-85
2021/12/22 11:00:27;;;;;;;1.60;1.50;;;;;;;0.49;73.35;101909.53;5196801;28;20053;-86
2021/12/22 11:03:05;;;;;;;1.48;1.38;;;;;;;0.54;73.05;101908.84;5179553;28;20131;-85
2021/12/22 11:05:46;;;;;;;0.55;0.55;;;;;;;0.55;73.25;101909.75;5184414;28;20489;-85
2021/12/22 11:08:27;;;;;;;1.50;1.42;;;;;;;0.57;73.47;101908.97;5196267;28;20038;-85
2021/12/22 11:10:57;;;;;;;0.98;0.98;;;;;;;0.65;73.61;101901.47;5163416;28;20022;-88
2021/12/22 11:13:31;;;;;;;0.77;0.77;;;;;;;0.65;73.28;101891.13;5164101;28;20069;-85
2021/12/22 11:16:01;;;;;;;;;;;;;;;0.67;73.44;101902.38;5167090;28;20402;-86
2021/12/22 11:18:34;;;;;;;0.70;0.70;;;;;;;0.80;73.25;101901.06;5163104;28;19928;-85
2021/12/22 11:21:23;;;;;;;0.63;0.63;;;;;;;0.73;73.63;101893.97;5159882;28;20033;-85
2021/12/22 11:23:53;;;;;;;0.40;0.40;;;;;;;0.83;73.48;101892.56;5164162;28;20033;-85
2021/12/22 11:26:24;;;;;;;1.08;1.08;;;;;;;0.86;73.50;101890.97;5163120;28;20042;-86
2021/12/22 11:28:56;;;;;;;0.77;0.77;;;;;;;0.88;73.43;101889.28;5197240;28;20029;-86
2021/12/22 11:31:26;;;;;;;2.05;1.95;;;;;;;0.78;73.91;101892.41;5184416;28;20042;-85
2021/12/22 11:33:57;;;;;;;0.93;0.93;;;;;;;0.89;73.63;101880.69;5157646;28;20080;-86
2021/12/22 11:36:28;;;;;;;1.38;1.33;;;;;;;0.88;73.19;101878.94;5183196;28;20080;-85
2021/12/22 11:38:58;;;;;;;3.00;2.85;;;;;;;0.89;74.09;101875.53;5169669;28;20068;-85
2021/12/22 11:41:31;;;;;;;1.27;1.27;;;;;;;1.02;73.68;101871.63;5183908;28;20081;-85
2021/12/22 11:44:01;;;;;;;2.03;1.92;;;;;;;1.08;72.82;101861.47;5179737;28;20097;-85
2021/12/22 11:46:32;;;;;;;3.03;2.78;;;;;;;0.90;73.18;101861.78;5194435;28;20310;-85
2021/12/22 11:49:04;;;;;;;1.63;1.55;;;;;;;0.92;73.64;101857.53;5152193;28;20038;-86
2021/12/22 11:51:35;;;;;;;0.73;0.73;;;;;;;1.05;72.74;101855.31;5165977;28;20494;-86
2021/12/22 11:54:12;;;;;;;1.38;1.27;;;;;;;1.01;73.30;101850.91;5166093;28;20498;-87
2021/12/22 11:56:49;;;;;;;1.27;1.27;;;;;;;0.84;71.78;101847.78;5149734;28;20128;-87
2021/12/22 11:59:34;;;;;;;0.50;0.50;;;;;;;1.06;73.35;101844.16;5150994;28;20065;-86
2021/12/22 12:02:17;;;;;;;1.23;1.23;;;;;;;1.14;72.37;101852.16;5142280;28;20564;-87
2021/12/22 12:04:51;;;;;;;0.80;0.80;;;;;;;1.19;72.39;101842.81;5174657;28;20048;-88
2021/12/22 12:07:54;;;;;;;0.80;0.80;;;;;;;1.23;72.61;101834.34;5163401;28;20553;-87
2021/12/22 12:10:40;;;;;;;0.65;0.65;;;;;;;1.34;72.53;101837.22;5178545;28;20034;-88
2021/12/22 12:13:37;;;;;;;0.60;0.60;;;;;;;1.36;72.46;101827.81;5175366;28;20049;-87
2021/12/22 12:22:33;;;;;;;1.30;1.30;;;;;;;1.39;71.72;101809.78;5170869;28;20030;-89
2021/12/22 12:25:13;;;;;;;1.85;1.75;;;;;;;1.50;71.98;101813.56;5170870;28;20048;-89
2021/12/22 12:28:36;;;;;;;0.77;0.77;;;;;;;1.59;72.63;101814.63;5138037;28;20187;-88